Time;durP1;ratioP1;P1;durP2;ratioP2;P2;SDS_P1;SDS_P2;PMS_P1;PMS_P2;Temp;Humidity;BMP_temperature;BMP_pressure;BME280_temperature;BME280_humidity;BME280_pressure;Samples;Min_cycle;Max_cycle;Signal;HPM_P1;HPM_P2
2022/06/30 00:01:44;;;;;;;27.38;14.82;;;22.30;1.00;;;;;;4912836;29;20095;-51
2022/06/30 00:04:10;;;;;;;25.77;13.90;;;22.20;1.00;;;;;;4913824;29;20440;-51
2022/06/30 00:06:36;;;;;;;22.48;13.18;;;22.30;1.00;;;;;;4902598;29;20020;-52
2022/06/30 00:09:02;;;;;;;25.77;13.25;;;22.30;1.00;;;;;;4913564;29;20039;-52
2022/06/30 00:11:28;;;;;;;25.30;13.05;;;22.40;1.00;;;;;;4913335;29;20111;-54
2022/06/30 00:13:54;;;;;;;29.17;13.73;;;22.40;1.00;;;;;;4913138;29;20044;-53
2022/06/30 00:16:20;;;;;;;38.03;15.90;;;22.30;1.00;;;;;;4911146;29;20436;-54
2022/06/30 00:18:45;;;;;;;30.15;14.95;;;22.30;1.00;;;;;;4903101;29;20040;-52
2022/06/30 00:21:11;;;;;;;28.98;15.85;;;22.30;1.00;;;;;;4902698;29;20053;-50
2022/06/30 00:23:37;;;;;;;28.38;16.90;;;22.40;1.00;;;;;;4911092;29;20083;-52
2022/06/30 00:26:03;;;;;;;36.80;18.10;;;22.40;1.00;;;;;;4911754;29;20021;-53
2022/06/30 00:28:29;;;;;;;33.25;17.05;;;22.40;1.00;;;;;;4912270;29;20071;-52
2022/06/30 00:30:55;;;;;;;25.75;15.07;;;22.30;1.00;;;;;;4915793;29;20044;-51
2022/06/30 00:33:21;;;;;;;28.20;16.13;;;22.30;1.00;;;;;;4903297;29;20451;-53
2022/06/30 00:35:47;;;;;;;30.52;16.63;;;22.30;1.00;;;;;;4911370;29;20127;-52
2022/06/30 00:38:13;;;;;;;29.38;15.73;;;22.30;1.00;;;;;;4911577;29;20035;-51
2022/06/30 00:40:44;;;;;;;28.52;15.55;;;22.30;1.00;;;;;;4909832;29;20440;-52
2022/06/30 00:43:11;;;;;;;31.42;16.13;;;22.30;1.00;;;;;;4913074;29;20040;-52
2022/06/30 00:45:41;;;;;;;26.60;16.88;;;22.30;1.00;;;;;;4906263;29;20033;-53
2022/06/30 00:48:09;;;;;;;26.98;15.27;;;22.30;1.00;;;;;;4907661;29;20569;-52
2022/06/30 00:50:35;;;;;;;44.08;19.55;;;22.30;1.00;;;;;;4913380;29;20067;-54
2022/06/30 00:53:03;;;;;;;29.02;18.80;;;22.30;1.00;;;;;;4904413;29;20084;-52
2022/06/30 00:55:30;;;;;;;31.83;19.10;;;22.30;1.00;;;;;;4910110;29;20084;-52
2022/06/30 00:58:00;;;;;;;31.27;17.38;;;22.30;1.00;;;;;;4902658;29;20036;-49
2022/06/30 01:00:35;;;;;;;34.50;17.65;;;22.30;1.00;;;;;;4931329;23;20055;-44
2022/06/30 01:03:01;;;;;;;27.33;16.05;;;22.20;1.00;;;;;;4933144;29;20031;-44
2022/06/30 01:05:27;;;;;;;34.05;17.95;;;22.30;1.00;;;;;;4934714;29;20032;-44
2022/06/30 01:07:55;;;;;;;30.80;17.67;;;22.20;1.00;;;;;;4933230;28;20087;-43
2022/06/30 01:13:05;;;;;;;32.92;17.00;;;22.40;1.00;;;;;;4932110;29;19930;-43
2022/06/30 01:15:31;;;;;;;30.00;17.23;;;22.30;1.00;;;;;;4930963;29;20035;-44
2022/06/30 01:17:57;;;;;;;34.17;18.08;;;22.30;1.00;;;;;;4932550;29;20020;-43
2022/06/30 01:20:30;;;;;;;31.02;16.55;;;22.30;1.00;;;;;;4932617;29;20028;-43
2022/06/30 01:22:57;;;;;;;36.85;17.80;;;22.20;1.00;;;;;;4930329;29;20039;-41
2022/06/30 01:25:24;;;;;;;35.65;17.38;;;22.20;1.00;;;;;;4932504;29;20032;-42
2022/06/30 01:27:53;;;;;;;36.70;19.05;;;22.20;1.00;;;;;;4932076;29;20044;-42
2022/06/30 01:30:20;;;;;;;30.05;16.10;;;22.20;1.00;;;;;;4928587;29;20566;-42
2022/06/30 01:32:46;;;;;;;36.63;18.05;;;22.20;1.00;;;;;;4932235;29;20070;-42
2022/06/30 01:35:12;;;;;;;33.50;17.95;;;22.20;1.00;;;;;;4931291;29;20055;-42
2022/06/30 01:37:56;;;;;;;29.10;17.13;;;22.10;1.00;;;;;;4933583;29;20067;-41
2022/06/30 01:40:25;;;;;;;32.03;17.58;;;22.10;1.00;;;;;;4931450;29;20130;-42
2022/06/30 01:42:51;;;;;;;35.08;19.10;;;22.10;1.00;;;;;;4932399;29;20098;-42
2022/06/30 01:45:18;;;;;;;36.58;21.00;;;22.10;1.00;;;;;;4931919;29;20110;-42
2022/06/30 01:47:44;;;;;;;33.47;22.15;;;22.00;1.00;;;;;;4929074;29;20027;-42
2022/06/30 01:50:21;;;;;;;37.60;20.40;;;22.00;1.00;;;;;;4928813;29;20450;-42
2022/06/30 01:52:47;;;;;;;31.77;20.83;;;22.00;1.00;;;;;;4931858;29;20444;-42
2022/06/30 01:55:13;;;;;;;45.65;20.38;;;22.00;1.00;;;;;;4932254;29;20123;-47
2022/06/30 01:57:40;;;;;;;26.25;17.58;;;22.00;1.00;;;;;;4930818;29;20062;-42
2022/06/30 02:00:10;;;;;;;37.00;20.40;;;22.00;1.00;;;;;;4946073;23;20421;-48
2022/06/30 02:02:37;;;;;;;36.72;17.42;;;22.00;1.00;;;;;;4932599;29;20042;-50
2022/06/30 02:05:03;;;;;;;36.33;19.50;;;22.10;1.00;;;;;;4934014;29;20038;-49
2022/06/30 02:07:29;;;;;;;28.33;17.02;;;22.10;1.00;;;;;;4932931;29;20126;-49
2022/06/30 02:09:56;;;;;;;34.83;17.88;;;22.20;1.00;;;;;;4932179;29;20497;-49
2022/06/30 02:15:09;;;;;;;23.20;14.48;;;22.20;1.00;;;;;;4932415;29;20549;-49
2022/06/30 02:17:36;;;;;;;26.13;11.70;;;22.20;1.40;;;;;;4932729;29;20064;-49
2022/06/30 02:20:02;;;;;;;23.17;11.05;;;22.30;99.90;;;;;;4932482;29;20409;-49
2022/06/30 02:22:28;;;;;;;22.80;12.10;;;22.30;99.90;;;;;;4932693;29;20032;-49
2022/06/30 02:24:54;;;;;;;23.13;12.40;;;22.30;99.90;;;;;;4932983;29;20034;-49
2022/06/30 02:27:23;;;;;;;20.20;11.25;;;22.30;99.90;;;;;;4933764;29;20040;-46
2022/06/30 02:29:49;;;;;;;21.27;10.50;;;22.40;99.90;;;;;;4933868;29;20020;-48
2022/06/30 02:32:15;;;;;;;20.35;9.80;;;22.40;99.90;;;;;;4932322;29;20031;-48
2022/06/30 02:34:43;;;;;;;17.40;10.82;;;22.40;99.90;;;;;;4933844;29;20020;-48
2022/06/30 02:37:08;;;;;;;20.80;9.60;;;22.40;99.90;;;;;;4933844;29;20036;-48
2022/06/30 02:39:34;;;;;;;20.08;9.45;;;22.40;99.90;;;;;;4934042;29;20389;-48
2022/06/30 02:42:00;;;;;;;22.73;13.00;;;22.50;99.90;;;;;;4924371;29;20499;-48
2022/06/30 02:44:26;;;;;;;18.55;9.80;;;22.50;99.90;;;;;;4934480;29;20449;-46
2022/06/30 02:46:54;;;;;;;23.48;12.27;;;22.50;99.90;;;;;;4937594;29;20032;-46
2022/06/30 02:49:21;;;;;;;20.73;11.25;;;22.50;99.90;;;;;;4937328;29;20398;-46
2022/06/30 02:51:47;;;;;;;20.15;11.30;;;22.50;99.90;;;;;;4937352;29;20497;-46
2022/06/30 02:54:14;;;;;;;18.40;11.13;;;22.50;99.90;;;;;;4937489;29;20478;-46
2022/06/30 02:56:40;;;;;;;21.60;10.68;;;22.50;99.90;;;;;;4937168;29;20481;-46
2022/06/30 03:01:48;;;;;;;22.25;13.07;;;22.50;99.90;;;;;;4897720;29;20049;-43
2022/06/30 03:04:13;;;;;;;20.75;10.38;;;22.50;99.90;;;;;;4889288;29;20029;-42
2022/06/30 03:06:39;;;;;;;15.32;8.57;;;22.50;99.90;;;;;;4883346;29;20184;-43
2022/06/30 03:09:05;;;;;;;20.00;10.38;;;22.40;99.90;;;;;;4899618;29;20029;-43
2022/06/30 03:11:32;;;;;;;14.73;8.25;;;22.40;99.90;;;;;;4899360;29;20527;-42
2022/06/30 03:13:57;;;;;;;18.25;9.05;;;22.50;99.90;;;;;;4885739;29;20043;-42
2022/06/30 03:16:23;;;;;;;21.75;9.02;;;22.50;99.90;;;;;;4899147;29;20033;-42
2022/06/30 03:18:52;;;;;;;12.00;6.72;;;22.50;99.90;;;;;;4896058;29;20133;-42
2022/06/30 03:21:20;;;;;;;18.63;8.65;;;22.40;99.90;;;;;;4880437;29;20045;-42
2022/06/30 03:23:46;;;;;;;15.18;8.35;;;22.50;99.90;;;;;;4881568;29;20033;-42
2022/06/30 03:26:13;;;;;;;16.77;7.40;;;22.50;99.90;;;;;;4898812;29;20107;-42
2022/06/30 03:28:39;;;;;;;15.52;7.28;;;22.50;99.90;;;;;;4897829;29;20127;-42
2022/06/30 03:31:04;;;;;;;11.77;6.07;;;22.50;99.90;;;;;;4881860;29;20116;-43
2022/06/30 03:33:31;;;;;;;21.80;7.82;;;22.50;99.90;;;;;;4880166;29;20471;-42
2022/06/30 03:35:57;;;;;;;9.60;5.50;;;22.50;99.90;;;;;;4880116;29;20041;-42
2022/06/30 03:38:22;;;;;;;13.55;6.78;;;22.60;99.90;;;;;;4880082;29;20015;-41
2022/06/30 03:40:49;;;;;;;9.90;5.53;;;22.50;99.90;;;;;;4880093;29;20132;-42
2022/06/30 03:43:16;;;;;;;16.23;6.63;;;22.60;99.90;;;;;;4883687;29;20032;-42
2022/06/30 03:45:43;;;;;;;15.52;7.53;;;22.60;99.90;;;;;;4889250;29;20387;-42
2022/06/30 03:48:08;;;;;;;14.40;6.03;;;22.60;99.90;;;;;;4893284;29;20419;-42
2022/06/30 03:50:34;;;;;;;13.05;5.00;;;22.50;99.90;;;;;;4879717;29;20060;-42
2022/06/30 03:53:01;;;;;;;12.32;5.60;;;22.50;99.90;;;;;;4891237;29;20025;-42
2022/06/30 03:55:27;;;;;;;11.57;5.00;;;22.50;99.90;;;;;;4898315;29;20024;-42
2022/06/30 03:57:53;;;;;;;11.10;5.30;;;22.50;99.90;;;;;;4890158;29;20068;-42
2022/06/30 04:00:19;;;;;;;10.48;4.60;;;22.50;99.90;;;;;;4880330;29;20131;-42
2022/06/30 04:02:45;;;;;;;14.57;5.65;;;22.60;99.90;;;;;;4890737;29;20028;-42
2022/06/30 04:05:11;;;;;;;13.35;5.43;;;22.50;99.90;;;;;;4882493;29;20098;-42
2022/06/30 04:07:41;;;;;;;19.48;6.70;;;22.50;99.90;;;;;;4879843;29;20024;-42
2022/06/30 04:10:09;;;;;;;14.15;5.57;;;22.50;99.90;;;;;;4879885;29;20035;-42
2022/06/30 04:12:35;;;;;;;17.83;5.93;;;22.50;99.90;;;;;;4897771;29;20029;-43
2022/06/30 04:15:01;;;;;;;18.88;6.78;;;22.50;99.90;;;;;;4898284;29;20035;-42
2022/06/30 04:17:27;;;;;;;19.17;6.85;;;22.50;99.90;;;;;;4896411;29;20029;-42
2022/06/30 04:19:52;;;;;;;15.40;6.65;;;22.50;99.90;;;;;;4884607;29;20029;-42
2022/06/30 04:22:18;;;;;;;14.38;5.60;;;22.50;99.90;;;;;;4886883;29;20041;-42
2022/06/30 04:24:44;;;;;;;14.18;6.25;;;22.50;99.90;;;;;;4892974;29;20029;-42
2022/06/30 04:27:10;;;;;;;10.85;5.15;;;22.50;99.90;;;;;;4886728;29;20067;-42
2022/06/30 04:29:35;;;;;;;19.08;7.35;;;22.60;99.90;;;;;;4898046;29;20173;-42
2022/06/30 04:34:45;;;;;;;15.88;6.75;;;22.60;99.90;;;;;;4879201;29;20510;-42
2022/06/30 04:37:11;;;;;;;15.98;6.80;;;22.60;99.90;;;;;;4891032;29;20068;-41
2022/06/30 04:39:37;;;;;;;14.95;5.60;;;22.60;99.90;;;;;;4896421;29;20036;-42
2022/06/30 04:42:03;;;;;;;11.38;5.38;;;22.50;99.90;;;;;;4885804;29;20037;-42
2022/06/30 04:44:28;;;;;;;20.25;7.53;;;22.50;99.90;;;;;;4882916;29;20080;-42
2022/06/30 04:46:54;;;;;;;17.00;5.28;;;22.50;99.90;;;;;;4889577;29;20502;-42
2022/06/30 04:49:20;;;;;;;13.60;7.00;;;22.60;99.90;;;;;;4879534;29;20041;-42
2022/06/30 04:51:46;;;;;;;13.75;5.47;;;22.60;99.90;;;;;;4897463;29;20493;-42
2022/06/30 04:54:11;;;;;;;18.13;7.22;;;22.60;99.90;;;;;;4897528;29;20036;-42
2022/06/30 04:56:37;;;;;;;20.83;7.63;;;22.60;99.90;;;;;;4897123;29;20107;-42
2022/06/30 04:59:03;;;;;;;13.32;6.05;;;22.60;99.90;;;;;;4888493;29;20092;-42
2022/06/30 05:01:29;;;;;;;16.67;8.23;;;22.60;99.90;;;;;;4891628;29;20188;-42
2022/06/30 05:03:54;;;;;;;18.60;9.32;;;22.60;99.90;;;;;;4883714;29;20047;-42
2022/06/30 05:06:20;;;;;;;16.65;7.13;;;22.60;99.90;;;;;;4896977;29;20036;-42
2022/06/30 05:08:47;;;;;;;14.35;6.30;;;22.60;99.90;;;;;;4895822;29;20047;-42
2022/06/30 05:11:13;;;;;;;13.55;7.50;;;22.60;99.90;;;;;;4897426;29;20112;-41
2022/06/30 05:13:40;;;;;;;17.27;7.47;;;22.50;99.90;;;;;;4897098;29;20535;-42
2022/06/30 05:16:05;;;;;;;14.05;7.88;;;22.60;99.90;;;;;;4880046;29;20029;-42
2022/06/30 05:18:31;;;;;;;16.23;7.57;;;22.60;99.90;;;;;;4878221;29;20117;-42
2022/06/30 05:20:57;;;;;;;19.35;8.45;;;22.60;99.90;;;;;;4891349;29;20371;-41
2022/06/30 05:23:23;;;;;;;13.40;5.97;;;22.60;99.90;;;;;;4884109;29;20016;-43
2022/06/30 05:28:33;;;;;;;15.25;7.05;;;22.60;99.90;;;;;;4896923;29;20107;-42
2022/06/30 05:30:59;;;;;;;24.65;8.60;;;22.60;99.90;;;;;;4887269;29;20061;-42
2022/06/30 05:33:25;;;;;;;20.67;9.05;;;22.60;99.90;;;;;;4893203;29;20039;-42
2022/06/30 05:35:52;;;;;;;17.88;8.60;;;22.60;99.90;;;;;;4890641;29;20033;-42
2022/06/30 05:38:18;;;;;;;19.08;8.20;;;22.60;99.90;;;;;;4889975;29;20020;-42
2022/06/30 05:40:48;;;;;;;17.63;9.90;;;22.60;99.90;;;;;;4896774;29;20039;-42
2022/06/30 05:43:16;;;;;;;19.60;9.07;;;22.60;99.90;;;;;;4896644;29;20065;-42
2022/06/30 05:45:44;;;;;;;25.52;11.45;;;22.70;99.90;;;;;;4896807;29;20025;-41
2022/06/30 05:48:09;;;;;;;;;;;22.70;99.90;;;;;;4897014;29;20024;-42
2022/06/30 05:50:35;;;;;;;18.33;7.88;;;22.70;99.90;;;;;;4896185;29;19907;-42
2022/06/30 05:53:01;;;;;;;23.45;11.52;;;22.70;99.90;;;;;;4879356;29;20029;-42
2022/06/30 05:55:27;;;;;;;19.85;10.98;;;22.70;99.90;;;;;;4896347;29;20031;-42
2022/06/30 05:57:58;;;;;;;10.20;5.80;;;22.70;99.90;;;;;;4885031;29;20060;-42
2022/06/30 06:00:26;;;;;;;19.67;10.23;;;22.80;99.90;;;;;;4883654;29;20045;-42
2022/06/30 06:02:52;;;;;;;26.55;12.80;;;22.80;99.90;;;;;;4896373;29;20453;-42
2022/06/30 06:05:18;;;;;;;17.92;10.23;;;22.80;99.90;;;;;;4882858;29;20047;-42
2022/06/30 06:07:44;;;;;;;26.05;15.73;;;22.90;99.90;;;;;;4886836;29;20028;-42
2022/06/30 06:10:10;;;;;;;16.27;8.05;;;22.90;99.90;;;;;;4877269;29;20115;-42
2022/06/30 06:12:37;;;;;;;19.60;8.57;;;22.90;99.90;;;;;;4877375;29;20021;-42
2022/06/30 06:15:03;;;;;;;14.38;8.93;;;22.90;99.90;;;;;;4887278;29;20490;-43
2022/06/30 06:17:30;;;;;;;14.85;7.88;;;23.00;99.90;;;;;;4893466;29;20035;-42
2022/06/30 06:19:56;;;;;;;19.70;8.63;;;23.00;99.90;;;;;;4877079;29;20033;-42
2022/06/30 06:22:22;;;;;;;21.10;10.70;;;23.10;99.90;;;;;;4903546;29;20369;-42
2022/06/30 06:24:50;;;;;;;22.15;9.13;;;23.10;99.90;;;;;;4895884;29;20025;-42
2022/06/30 06:27:15;;;;;;;13.63;9.55;;;23.10;99.90;;;;;;4895871;29;20033;-42
2022/06/30 06:29:41;;;;;;;19.55;9.38;;;23.10;99.90;;;;;;4881746;29;20440;-42
2022/06/30 06:32:07;;;;;;;17.98;8.55;;;23.10;99.90;;;;;;4877064;29;20475;-42
2022/06/30 06:34:33;;;;;;;18.63;7.53;;;23.10;99.90;;;;;;4887398;29;20044;-42
2022/06/30 06:36:59;;;;;;;15.48;8.05;;;23.00;99.90;;;;;;4882582;29;20032;-42
2022/06/30 06:39:24;;;;;;;19.02;7.38;;;23.10;99.90;;;;;;4889022;29;20050;-42
2022/06/30 06:41:50;;;;;;;22.55;10.23;;;23.10;99.90;;;;;;4887460;29;20033;-42
2022/06/30 06:44:16;;;;;;;16.48;8.43;;;23.10;99.90;;;;;;4895679;29;20056;-42
2022/06/30 06:46:41;;;;;;;23.42;8.95;;;23.10;99.90;;;;;;4889049;29;20116;-42
2022/06/30 06:49:08;;;;;;;18.35;8.63;;;23.10;99.90;;;;;;4876977;29;20110;-42
2022/06/30 06:51:34;;;;;;;19.75;8.80;;;23.10;99.90;;;;;;4894999;29;20032;-42
2022/06/30 06:54:01;;;;;;;27.73;9.47;;;23.10;99.90;;;;;;4895803;29;20051;-42
2022/06/30 06:56:27;;;;;;;23.73;10.07;;;23.10;99.90;;;;;;4895339;29;20025;-42
2022/06/30 06:58:53;;;;;;;21.08;9.40;;;23.10;99.90;;;;;;4891335;29;20037;-42
2022/06/30 07:01:19;;;;;;;19.17;7.82;;;23.20;99.90;;;;;;4876742;29;20048;-42
2022/06/30 07:03:45;;;;;;;18.25;8.68;;;23.20;99.90;;;;;;4876999;29;20476;-42
2022/06/30 07:06:11;;;;;;;34.03;8.98;;;23.30;99.90;;;;;;4885921;29;20047;-42
2022/06/30 07:08:37;;;;;;;21.42;7.88;;;23.30;99.90;;;;;;4894408;29;20169;-42
2022/06/30 07:11:03;;;;;;;19.05;7.28;;;23.30;99.90;;;;;;4883493;29;20032;-42
2022/06/30 07:13:31;;;;;;;23.25;9.20;;;23.30;99.90;;;;;;4895498;29;20084;-42
2022/06/30 07:15:57;;;;;;;35.97;9.82;;;23.30;99.90;;;;;;4882232;29;20399;-42
2022/06/30 07:18:23;;;;;;;28.88;8.75;;;23.40;99.90;;;;;;4886493;29;20479;-42
2022/06/30 07:20:48;;;;;;;16.23;7.10;;;23.40;99.90;;;;;;4876762;29;20113;-42
2022/06/30 07:23:15;;;;;;;19.05;8.18;;;23.40;99.90;;;;;;4889811;29;20029;-42
2022/06/30 07:25:41;;;;;;;16.88;7.32;;;23.30;99.90;;;;;;4876657;29;20028;-42
2022/06/30 07:28:07;;;;;;;20.35;7.53;;;23.30;99.90;;;;;;4892236;29;20084;-43
2022/06/30 07:30:33;;;;;;;16.60;7.32;;;23.30;99.90;;;;;;4898840;29;20491;-42
2022/06/30 07:32:59;;;;;;;24.85;8.80;;;23.40;99.90;;;;;;4887767;29;20029;-42
2022/06/30 07:35:25;;;;;;;16.48;7.25;;;23.40;99.90;;;;;;4896472;29;20320;-42
2022/06/30 07:37:51;;;;;;;17.17;6.60;;;23.40;99.90;;;;;;4891676;29;20081;-43
2022/06/30 07:40:16;;;;;;;16.70;7.05;;;23.40;99.90;;;;;;4891894;29;20406;-42
2022/06/30 07:42:42;;;;;;;16.10;7.15;;;23.50;99.90;;;;;;4881483;29;20025;-42
2022/06/30 07:45:10;;;;;;;18.80;7.35;;;23.40;99.90;;;;;;4879936;29;20021;-42
2022/06/30 07:47:41;;;;;;;16.83;7.40;;;23.40;99.90;;;;;;4879971;29;20033;-41
2022/06/30 07:50:07;;;;;;;16.50;6.72;;;23.40;99.90;;;;;;4898404;29;20039;-42
2022/06/30 07:52:33;;;;;;;15.77;6.68;;;23.40;99.90;;;;;;4888149;29;20395;-42
2022/06/30 07:55:00;;;;;;;18.13;6.93;;;23.40;99.90;;;;;;4892721;29;20025;-42
2022/06/30 07:57:27;;;;;;;15.23;6.25;;;23.40;99.90;;;;;;4879564;29;20029;-42
2022/06/30 07:59:53;;;;;;;22.13;6.28;;;23.30;99.90;;;;;;4881956;29;20141;-42
2022/06/30 08:02:19;;;;;;;16.58;7.47;;;23.40;99.90;;;;;;4890412;29;20037;-42
2022/06/30 08:04:45;;;;;;;13.80;6.32;;;23.30;99.90;;;;;;4879285;29;20048;-43
2022/06/30 08:07:11;;;;;;;18.40;6.53;;;23.30;99.90;;;;;;4884258;29;20035;-42
2022/06/30 08:09:37;;;;;;;13.23;6.63;;;23.30;99.90;;;;;;4889548;29;20337;-42
2022/06/30 08:12:03;;;;;;;16.52;6.32;;;23.40;99.90;;;;;;4893664;29;20502;-43
2022/06/30 08:14:29;;;;;;;17.52;6.30;;;23.40;99.90;;;;;;4898203;29;20029;-42
2022/06/30 08:16:55;;;;;;;19.00;6.70;;;23.40;99.90;;;;;;4898126;29;20029;-43
2022/06/30 08:19:21;;;;;;;14.93;6.57;;;23.40;99.90;;;;;;4881604;29;20025;-42
2022/06/30 08:21:47;;;;;;;13.27;6.55;;;23.40;99.90;;;;;;4886309;29;20483;-42
2022/06/30 08:24:14;;;;;;;11.52;5.75;;;23.40;99.90;;;;;;4898029;29;20103;-42
2022/06/30 08:26:39;;;;;;;18.48;6.75;;;23.40;99.90;;;;;;4898834;29;20032;-42
2022/06/30 08:29:05;;;;;;;11.55;5.78;;;23.50;99.90;;;;;;4896619;29;20036;-42
2022/06/30 08:31:33;;;;;;;12.98;5.38;;;23.50;99.90;;;;;;4885005;29;20032;-42
2022/06/30 08:33:59;;;;;;;11.20;4.72;;;23.50;99.90;;;;;;4879037;29;20077;-42
2022/06/30 08:36:25;;;;;;;16.35;5.57;;;23.50;99.90;;;;;;4887370;29;20124;-43
2022/06/30 08:38:51;;;;;;;13.43;4.85;;;23.50;99.90;;;;;;4894037;29;20124;-43
2022/06/30 08:44:01;;;;;;;11.65;5.00;;;23.50;99.90;;;;;;4893419;29;20528;-42
2022/06/30 08:46:28;;;;;;;14.65;5.53;;;23.50;99.90;;;;;;4897471;29;20028;-42
2022/06/30 08:48:54;;;;;;;10.35;5.78;;;23.50;99.90;;;;;;4886894;29;20081;-42
2022/06/30 08:51:21;;;;;;;9.50;5.57;;;23.50;99.90;;;;;;4895121;29;20074;-42
2022/06/30 08:54:00;;;;;;;8.93;4.63;;;23.50;99.90;;;;;;4890022;29;20033;-44
2022/06/30 08:56:34;;;;;;;12.93;5.45;;;23.50;99.90;;;;;;4893146;29;20091;-42
2022/06/30 08:59:03;;;;;;;13.38;5.55;;;23.50;99.90;;;;;;4888951;29;20044;-42
2022/06/30 09:01:29;;;;;;;14.27;6.05;;;23.40;99.90;;;;;;4879042;29;20105;-43
2022/06/30 09:03:56;;;;;;;10.88;4.82;;;23.40;99.90;;;;;;4896629;29;20016;-43
2022/06/30 09:06:22;;;;;;;13.52;5.20;;;23.40;99.90;;;;;;4896436;29;20574;-42
2022/06/30 09:08:48;;;;;;;12.98;4.72;;;23.50;99.90;;;;;;4881197;29;20406;-43
2022/06/30 09:11:15;;;;;;;18.35;5.70;;;23.50;99.90;;;;;;4896072;29;20693;-42
2022/06/30 09:13:50;;;;;;;11.85;5.43;;;23.50;99.90;;;;;;4882123;29;20049;-43
2022/06/30 09:16:17;;;;;;;14.32;6.07;;;23.50;99.90;;;;;;4877579;29;20025;-43
2022/06/30 09:18:44;;;;;;;13.40;5.07;;;23.50;99.90;;;;;;4888782;29;20444;-43
2022/06/30 09:21:17;;;;;;;11.35;5.80;;;23.50;99.90;;;;;;4895651;29;20032;-42
2022/06/30 09:23:45;;;;;;;12.30;5.93;;;23.50;99.90;;;;;;4887223;29;20064;-42
2022/06/30 09:26:18;;;;;;;15.00;6.85;;;23.60;99.90;;;;;;4877167;29;20108;-42
2022/06/30 09:28:45;;;;;;;15.93;5.78;;;23.60;99.90;;;;;;4883728;29;20040;-43
2022/06/30 09:31:12;;;;;;;;;;;23.60;99.90;;;;;;4894983;29;20032;-42
2022/06/30 09:33:40;;;;;;;20.20;6.47;;;23.60;99.90;;;;;;4882636;29;19904;-43
2022/06/30 09:36:23;;;;;;;10.85;5.32;;;23.70;99.90;;;;;;4895767;29;20447;-43
2022/06/30 09:39:05;;;;;;;14.02;6.53;;;23.70;99.90;;;;;;4893774;29;20092;-42
2022/06/30 09:41:36;;;;;;;15.15;6.20;;;23.60;99.90;;;;;;4877072;29;20044;-42
2022/06/30 09:44:19;;;;;;;11.43;5.68;;;23.70;99.90;;;;;;4890041;29;20051;-42
2022/06/30 09:46:59;;;;;;;20.27;7.93;;;23.70;99.90;;;;;;4877289;29;20071;-42
2022/06/30 09:49:31;;;;;;;14.85;6.93;;;23.60;99.90;;;;;;4877047;29;20021;-43
2022/06/30 09:51:59;;;;;;;19.58;11.43;;;23.70;99.90;;;;;;4876564;29;20033;-42
2022/06/30 09:54:26;;;;;;;21.23;9.82;;;23.60;99.90;;;;;;4888840;29;20037;-44
2022/06/30 09:57:02;;;;;;;22.77;10.60;;;23.60;99.90;;;;;;4880494;29;20589;-42
2022/06/30 09:59:28;;;;;;;20.27;9.50;;;23.70;99.90;;;;;;4843232;29;1195827;-42
2022/06/30 10:01:55;;;;;;;14.60;7.68;;;23.80;99.90;;;;;;4882412;29;20652;-42
2022/06/30 10:04:21;;;;;;;23.15;10.90;;;23.80;99.90;;;;;;4887211;29;20033;-42
2022/06/30 10:06:47;;;;;;;20.30;10.80;;;23.80;99.90;;;;;;4878675;29;20281;-46
2022/06/30 10:09:17;;;;;;;17.80;8.43;;;23.80;99.90;;;;;;4890724;29;20523;-42
2022/06/30 10:11:45;;;;;;;19.20;6.60;;;23.80;99.90;;;;;;4877159;29;20040;-43
2022/06/30 10:14:11;;;;;;;;;;;23.80;99.90;;;;;;4892634;29;20031;-42
2022/06/30 10:16:42;;;;;;;16.80;7.03;;;23.80;99.90;;;;;;4886152;29;19915;-42
2022/06/30 10:19:12;;;;;;;26.05;6.72;;;23.70;99.90;;;;;;4891583;29;20403;-42
2022/06/30 10:21:39;;;;;;;17.63;7.72;;;23.70;99.90;;;;;;4882696;29;20139;-42
2022/06/30 10:24:08;;;;;;;21.17;8.43;;;23.70;99.90;;;;;;4891829;29;20416;-42
2022/06/30 10:29:19;;;;;;;13.18;6.40;;;23.70;99.90;;;;;;4881038;29;20063;-42
2022/06/30 10:31:59;;;;;;;16.83;6.47;;;23.80;99.90;;;;;;4891215;29;20031;-44
2022/06/30 10:34:33;;;;;;;17.05;6.28;;;23.90;99.90;;;;;;4880728;29;20380;-44
2022/06/30 10:37:08;;;;;;;15.52;5.95;;;24.10;99.90;;;;;;4879154;29;20329;-43
2022/06/30 10:39:58;;;;;;;19.85;5.93;;;24.10;99.90;;;;;;4880706;29;20025;-44
2022/06/30 10:42:46;;;;;;;16.40;5.78;;;24.20;99.90;;;;;;4876615;29;20124;-44
2022/06/30 10:45:30;;;;;;;18.70;5.30;;;24.40;99.90;;;;;;4876560;29;20616;-44
2022/06/30 10:48:08;;;;;;;12.65;5.47;;;24.50;99.90;;;;;;4876657;29;20013;-44
2022/06/30 10:50:33;;;;;;;19.17;5.43;;;24.50;99.90;;;;;;4875974;29;20064;-44
2022/06/30 10:53:00;;;;;;;13.70;5.53;;;24.50;99.90;;;;;;4876615;29;20044;-44
2022/06/30 10:55:26;;;;;;;18.10;5.10;;;24.50;99.90;;;;;;4876796;29;20026;-45
2022/06/30 10:58:01;;;;;;;18.70;4.28;;;24.40;99.90;;;;;;4878284;29;20096;-44
2022/06/30 11:00:48;;;;;;;17.30;6.05;;;24.40;99.90;;;;;;4883513;29;20135;-43
2022/06/30 11:03:35;;;;;;;11.10;4.30;;;24.50;99.90;;;;;;4896924;29;20455;-42
2022/06/30 11:06:06;;;;;;;17.77;5.10;;;24.50;99.90;;;;;;4882339;29;20029;-42
2022/06/30 11:08:57;;;;;;;11.52;4.68;;;24.60;99.90;;;;;;4880661;29;20065;-43
2022/06/30 11:11:24;;;;;;;16.00;5.75;;;24.60;99.90;;;;;;4880081;29;20102;-42
2022/06/30 11:13:51;;;;;;;12.95;5.40;;;24.70;99.90;;;;;;4889546;29;20047;-43
2022/06/30 11:16:18;;;;;;;;;;;24.80;99.90;;;;;;4886303;29;20022;-43
2022/06/30 11:18:43;;;;;;;18.77;6.57;;;24.90;99.90;;;;;;4893437;29;19915;-43
2022/06/30 11:21:09;;;;;;;18.67;6.85;;;24.90;99.90;;;;;;4880226;29;20292;-43
2022/06/30 11:23:47;;;;;;;12.63;4.72;;;25.00;99.90;;;;;;4880151;29;20107;-43
2022/06/30 11:29:04;;;;;;;17.23;5.80;;;25.00;99.90;;;;;;4898937;29;20027;-43
2022/06/30 11:31:35;;;;;;;12.15;4.70;;;25.10;99.90;;;;;;4899020;29;20024;-43
2022/06/30 11:34:02;;;;;;;11.10;4.10;;;25.20;99.90;;;;;;4898095;29;20033;-43
2022/06/30 11:36:28;;;;;;;8.52;3.90;;;25.20;99.90;;;;;;4886687;29;20406;-43
2022/06/30 11:39:06;;;;;;;22.35;7.70;;;25.30;99.90;;;;;;4898817;29;20025;-44
2022/06/30 11:44:21;;;;;;;15.07;5.60;;;25.50;99.90;;;;;;4886180;29;20169;-43
2022/06/30 11:46:50;;;;;;;19.42;4.47;;;25.60;99.90;;;;;;4879881;29;20029;-44
2022/06/30 11:49:16;;;;;;;12.15;4.20;;;25.70;99.90;;;;;;4879733;29;20021;-43
2022/06/30 11:51:43;;;;;;;13.93;4.95;;;25.70;99.90;;;;;;4894996;29;20029;-44
2022/06/30 11:54:11;;;;;;;12.38;4.05;;;25.70;99.90;;;;;;4898595;29;20039;-43
2022/06/30 11:56:53;;;;;;;12.52;4.75;;;25.70;99.90;;;;;;4898037;29;20404;-43
2022/06/30 11:59:19;;;;;;;13.70;6.68;;;25.70;99.90;;;;;;4887412;29;20033;-43
2022/06/30 12:02:05;;;;;;;11.85;4.32;;;25.80;99.90;;;;;;4896078;29;20048;-43
2022/06/30 12:04:32;;;;;;;8.82;4.32;;;25.90;99.90;;;;;;4888135;29;20028;-43
2022/06/30 12:07:00;;;;;;;14.13;4.35;;;25.80;99.90;;;;;;4879654;29;20414;-44
2022/06/30 12:09:26;;;;;;;17.15;6.95;;;25.80;99.90;;;;;;4879629;29;20107;-43
2022/06/30 12:11:53;;;;;;;12.82;4.53;;;25.90;99.90;;;;;;4879286;29;20029;-43
2022/06/30 12:14:19;;;;;;;16.40;6.82;;;25.90;99.90;;;;;;4897577;29;20065;-44
2022/06/30 12:16:45;;;;;;;16.60;8.05;;;26.00;99.90;;;;;;4898056;29;20658;-44
2022/06/30 12:19:15;;;;;;;20.67;9.90;;;26.10;99.90;;;;;;4882822;29;20483;-43
2022/06/30 12:21:41;;;;;;;22.30;7.43;;;26.10;99.90;;;;;;4887257;29;20032;-43
2022/06/30 12:24:08;;;;;;;15.27;6.90;;;26.10;99.90;;;;;;4897887;29;20029;-43
2022/06/30 12:26:34;;;;;;;14.27;4.57;;;26.10;99.90;;;;;;4888978;29;20025;-43
2022/06/30 12:29:09;;;;;;;12.35;4.65;;;26.20;99.90;;;;;;4886251;29;20022;-43
2022/06/30 12:31:35;;;;;;;10.10;3.70;;;26.20;99.90;;;;;;4880073;29;20092;-47
2022/06/30 12:34:01;;;;;;;16.95;5.72;;;26.40;99.90;;;;;;4889401;29;20016;-44
2022/06/30 12:36:32;;;;;;;14.25;4.60;;;26.50;99.90;;;;;;4884484;29;20040;-43
2022/06/30 12:39:10;;;;;;;39.28;24.00;;;26.50;99.90;;;;;;4882099;29;20093;-44
2022/06/30 12:41:36;;;;;;;23.88;10.25;;;26.60;99.90;;;;;;4893972;29;20123;-44
2022/06/30 12:44:02;;;;;;;26.23;8.38;;;26.70;99.90;;;;;;4884438;29;20039;-43
2022/06/30 12:46:42;;;;;;;17.88;6.07;;;26.80;99.90;;;;;;4891645;29;20096;-43
2022/06/30 12:49:20;;;;;;;14.85;4.30;;;26.80;99.90;;;;;;4890875;29;20027;-44
2022/06/30 12:51:47;;;;;;;15.88;4.22;;;26.80;99.90;;;;;;4885837;29;20115;-44
2022/06/30 12:54:16;;;;;;;19.07;6.67;;;26.80;99.90;;;;;;4904409;29;20020;-43
2022/06/30 12:56:50;;;;;;;13.73;4.63;;;26.90;99.90;;;;;;4890305;29;20284;-43
2022/06/30 12:59:23;;;;;;;14.10;4.70;;;26.90;99.90;;;;;;4888984;29;20033;-43
2022/06/30 13:01:57;;;;;;;19.20;6.55;;;27.10;99.90;;;;;;4884456;29;20072;-44
2022/06/30 13:04:25;;;;;;;14.38;4.28;;;27.20;99.90;;;;;;4883970;29;20470;-43
2022/06/30 13:06:53;;;;;;;14.82;3.92;;;27.30;99.90;;;;;;4887247;29;20378;-43